createdAt,value
2017-02-22T00:00:37.387Z,0
2017-02-22T00:01:17.990Z,0
2017-02-22T00:01:58.567Z,0
2017-02-22T00:02:39.179Z,0
2017-02-22T00:03:19.861Z,0
2017-02-22T00:04:00.478Z,0
2017-02-22T00:04:41.158Z,0
2017-02-22T00:05:21.740Z,0
2017-02-22T00:06:02.381Z,0
2017-02-22T00:06:43.007Z,0
2017-02-22T00:07:23.641Z,0
2017-02-22T00:08:04.241Z,0
2017-02-22T00:08:44.929Z,0
2017-02-22T00:09:25.530Z,0
2017-02-22T00:10:06.173Z,0
2017-02-22T00:10:46.825Z,0
2017-02-22T00:11:27.493Z,0
2017-02-22T00:12:08.119Z,0
2017-02-22T00:12:48.712Z,0
2017-02-22T00:13:29.329Z,0
2017-02-22T00:14:09.962Z,0
2017-02-22T00:14:50.551Z,0
2017-02-22T00:15:31.131Z,0
2017-02-22T00:16:11.759Z,0
2017-02-22T00:16:52.390Z,0
2017-02-22T00:17:33.022Z,0
2017-02-22T00:19:51.848Z,0
2017-02-22T00:20:32.401Z,0
2017-02-22T00:21:13.032Z,0
2017-02-22T00:21:53.623Z,0
2017-02-22T00:22:34.224Z,0
2017-02-22T00:23:14.888Z,0
2017-02-22T00:23:55.543Z,0
2017-02-22T00:24:36.176Z,0
2017-02-22T00:25:16.791Z,0
2017-02-22T00:25:57.405Z,0
2017-02-22T00:26:38.036Z,0
2017-02-22T00:27:18.663Z,0
2017-02-22T00:27:59.267Z,0
2017-02-22T00:28:39.867Z,0
2017-02-22T00:29:20.554Z,0
2017-02-22T00:30:01.181Z,0
2017-02-22T00:30:41.748Z,0
2017-02-22T00:31:22.371Z,0
2017-02-22T00:32:02.949Z,0
2017-02-22T00:32:43.504Z,0
2017-02-22T00:33:24.149Z,0
2017-02-22T00:34:04.810Z,0
2017-02-22T00:34:45.445Z,0
2017-02-22T00:35:26.111Z,0
2017-02-22T00:36:06.740Z,0
2017-02-22T00:36:47.383Z,0
2017-02-22T00:37:27.993Z,0
2017-02-22T00:38:08.611Z,0
2017-02-22T00:38:49.270Z,0
2017-02-22T00:39:29.863Z,0
2017-02-22T00:40:10.542Z,0
2017-02-22T00:40:51.204Z,0
2017-02-22T00:41:31.867Z,0
2017-02-22T00:42:12.459Z,0
2017-02-22T00:42:53.076Z,0
2017-02-22T00:43:33.725Z,0
2017-02-22T00:44:14.361Z,0
2017-02-22T00:44:54.988Z,0
2017-02-22T00:45:35.604Z,0
2017-02-22T00:46:16.240Z,0
2017-02-22T00:46:56.978Z,0
2017-02-22T00:47:37.586Z,0
2017-02-22T00:48:18.216Z,0
2017-02-22T00:48:58.867Z,0
2017-02-22T00:49:39.492Z,0
2017-02-22T00:50:20.078Z,0
2017-02-22T00:51:00.710Z,0
2017-02-22T00:51:41.380Z,0
2017-02-22T00:52:21.995Z,0
2017-02-22T00:53:02.636Z,0
2017-02-22T00:53:43.241Z,0
2017-02-22T00:54:23.891Z,0
2017-02-22T00:55:04.518Z,0
2017-02-22T00:55:45.105Z,0
2017-02-22T00:56:25.735Z,0
2017-02-22T00:57:06.359Z,0
2017-02-22T00:57:46.951Z,0
2017-02-22T00:58:27.582Z,0
2017-02-22T00:59:08.129Z,0
2017-02-22T00:59:48.723Z,0
2017-02-22T01:00:29.314Z,0
2017-02-22T01:01:09.913Z,0
2017-02-22T01:01:50.504Z,0
2017-02-22T01:02:31.119Z,0
2017-02-22T01:03:11.725Z,0
2017-02-22T01:03:52.295Z,0
2017-02-22T01:04:32.936Z,0
2017-02-22T01:05:13.568Z,0
2017-02-22T01:05:54.213Z,0
2017-02-22T01:06:34.815Z,0
2017-02-22T01:07:15.419Z,0
2017-02-22T01:07:56.033Z,0
2017-02-22T01:08:36.721Z,0
2017-02-22T01:09:17.291Z,0
2017-02-22T01:09:57.898Z,0
2017-02-22T01:10:38.536Z,0
2017-02-22T01:11:19.148Z,0
2017-02-22T01:11:59.819Z,0
2017-02-22T01:12:40.424Z,0
2017-02-22T01:13:21.028Z,0
2017-02-22T01:14:01.710Z,0
2017-02-22T01:14:42.334Z,0
2017-02-22T01:15:22.958Z,0
2017-02-22T01:16:03.556Z,0
2017-02-22T01:16:44.193Z,0
2017-02-22T01:17:24.789Z,0
2017-02-22T01:18:06.192Z,0
2017-02-22T01:18:46.783Z,0
2017-02-22T01:19:27.438Z,0
2017-02-22T01:20:08.067Z,0
2017-02-22T01:20:48.682Z,0
2017-02-22T01:21:29.289Z,0
2017-02-22T01:22:09.909Z,0
2017-02-22T01:22:50.531Z,0
2017-02-22T01:23:31.149Z,0
2017-02-22T01:24:11.784Z,0
2017-02-22T01:24:52.464Z,0
2017-02-22T01:25:33.080Z,0
2017-02-22T01:26:13.686Z,0
2017-02-22T01:26:54.280Z,0
2017-02-22T01:27:34.869Z,0
2017-02-22T01:28:15.514Z,0
2017-02-22T01:28:56.182Z,0
2017-02-22T01:29:36.822Z,0
2017-02-22T01:30:17.432Z,0
2017-02-22T01:30:58.025Z,0
2017-02-22T01:31:38.666Z,0
2017-02-22T01:32:19.270Z,0
2017-02-22T01:32:59.875Z,0
2017-02-22T01:33:40.503Z,0
2017-02-22T01:34:21.067Z,0
2017-02-22T01:35:01.662Z,0
2017-02-22T01:35:42.268Z,0
2017-02-22T01:36:22.929Z,0
2017-02-22T01:37:03.524Z,0
2017-02-22T01:37:44.117Z,0
2017-02-22T01:38:24.706Z,0
2017-02-22T01:39:05.323Z,0
2017-02-22T01:39:45.994Z,0
2017-02-22T01:40:26.584Z,0
2017-02-22T01:41:07.199Z,0
2017-02-22T01:41:47.795Z,0
2017-02-22T01:42:28.404Z,0
2017-02-22T01:43:09.032Z,0
2017-02-22T01:43:49.654Z,0
2017-02-22T01:44:30.256Z,0
2017-02-22T01:45:10.904Z,0
2017-02-22T01:45:51.549Z,0
2017-02-22T01:46:32.172Z,0
2017-02-22T01:47:12.795Z,0
2017-02-22T01:47:53.395Z,0
2017-02-22T01:48:34.032Z,0
2017-02-22T01:49:14.725Z,0
2017-02-22T01:49:55.375Z,0
2017-02-22T01:50:35.951Z,0
2017-02-22T01:51:16.573Z,0
2017-02-22T01:51:57.227Z,0
2017-02-22T01:52:37.825Z,0
2017-02-22T01:53:18.407Z,0
2017-02-22T01:53:59.033Z,0
2017-02-22T01:54:39.606Z,0
2017-02-22T01:55:20.194Z,0
2017-02-22T01:56:00.793Z,0
2017-02-22T01:56:41.375Z,0
2017-02-22T01:57:22.018Z,0
2017-02-22T01:58:02.621Z,0
2017-02-22T01:58:43.242Z,0
2017-02-22T01:59:23.826Z,0
2017-02-22T02:00:04.455Z,0
2017-02-22T02:00:45.094Z,0
2017-02-22T02:01:25.705Z,0
2017-02-22T02:02:06.285Z,0
2017-02-22T02:02:46.864Z,0
2017-02-22T02:03:27.487Z,0
2017-02-22T02:04:08.106Z,0
2017-02-22T02:04:48.736Z,0
2017-02-22T02:05:29.434Z,0
2017-02-22T02:06:10.013Z,0
2017-02-22T02:06:50.603Z,0
2017-02-22T02:07:31.207Z,0
2017-02-22T02:08:11.819Z,0
2017-02-22T02:08:52.396Z,0
2017-02-22T02:09:33.025Z,0
2017-02-22T02:10:13.639Z,0
2017-02-22T02:10:54.248Z,0
2017-02-22T02:11:34.855Z,0
2017-02-22T02:12:15.471Z,0
2017-02-22T02:12:56.020Z,0
2017-02-22T02:13:36.666Z,0
2017-02-22T02:14:17.287Z,0
2017-02-22T02:14:57.900Z,0
2017-02-22T02:15:38.539Z,0
2017-02-22T02:16:19.159Z,0
2017-02-22T02:16:59.766Z,0
2017-02-22T02:17:40.396Z,0
2017-02-22T02:18:20.998Z,0
2017-02-22T02:19:01.595Z,0
2017-02-22T02:19:42.237Z,0
2017-02-22T02:20:22.911Z,0
2017-02-22T02:21:03.551Z,0
2017-02-22T02:21:44.209Z,0
2017-02-22T02:22:24.840Z,0
2017-02-22T02:23:05.433Z,0
2017-02-22T02:23:46.059Z,0
2017-02-22T02:24:26.677Z,0
2017-02-22T02:25:07.327Z,0
2017-02-22T02:25:47.937Z,0
2017-02-22T02:26:28.519Z,0
2017-02-22T02:27:09.098Z,0
2017-02-22T02:27:49.697Z,0
2017-02-22T02:28:30.309Z,0
2017-02-22T02:29:10.910Z,0
2017-02-22T02:29:51.518Z,0
2017-02-22T02:30:32.105Z,0
2017-02-22T02:31:12.691Z,0
2017-02-22T02:31:53.312Z,0
2017-02-22T02:32:33.954Z,0
2017-02-22T02:33:14.572Z,0
2017-02-22T02:33:55.160Z,0
2017-02-22T02:34:35.790Z,0
2017-02-22T02:35:16.357Z,0
2017-02-22T02:35:56.946Z,0
2017-02-22T02:36:37.553Z,0
2017-02-22T02:37:18.162Z,0
2017-02-22T02:37:58.755Z,0
2017-02-22T02:38:39.353Z,0
2017-02-22T02:39:19.938Z,0
2017-02-22T02:40:00.557Z,0
2017-02-22T02:40:41.152Z,0
2017-02-22T02:41:21.790Z,0
2017-02-22T02:42:02.371Z,0
2017-02-22T02:42:42.998Z,0
2017-02-22T02:43:23.598Z,0
2017-02-22T02:44:04.277Z,0
2017-02-22T02:44:44.903Z,0
2017-02-22T02:45:25.541Z,0
2017-02-22T02:46:06.106Z,0
2017-02-22T02:46:46.715Z,0
2017-02-22T02:47:27.332Z,0
2017-02-22T02:48:07.906Z,0
2017-02-22T02:48:48.523Z,0
2017-02-22T02:49:29.161Z,0
2017-02-22T02:50:09.782Z,0
2017-02-22T02:50:50.376Z,0
2017-02-22T02:51:31.002Z,0
2017-02-22T02:52:11.644Z,0
2017-02-22T02:52:52.281Z,0
2017-02-22T02:53:32.854Z,0
2017-02-22T02:54:13.438Z,0
2017-02-22T02:54:54.041Z,0
2017-02-22T02:55:34.628Z,0
2017-02-22T02:56:15.245Z,0
2017-02-22T02:56:55.891Z,0
2017-02-22T02:57:36.485Z,0
2017-02-22T02:58:17.121Z,0
2017-02-22T02:58:57.728Z,0
2017-02-22T02:59:38.347Z,0
2017-02-22T03:00:18.937Z,0
2017-02-22T03:00:59.543Z,0
2017-02-22T03:01:40.167Z,0
2017-02-22T03:02:20.777Z,0
2017-02-22T03:03:01.395Z,0
2017-02-22T03:03:42.012Z,0
2017-02-22T03:04:22.620Z,0
2017-02-22T03:05:03.256Z,0
2017-02-22T03:05:43.898Z,0
2017-02-22T03:06:24.495Z,0
2017-02-22T03:07:05.098Z,0
2017-02-22T03:07:45.753Z,0
2017-02-22T03:08:26.346Z,0
2017-02-22T03:09:06.968Z,0
2017-02-22T03:09:47.607Z,0
2017-02-22T03:10:28.231Z,0
2017-02-22T03:11:08.851Z,0
2017-02-22T03:11:49.458Z,0
2017-02-22T03:12:44.799Z,0
2017-02-22T03:13:25.379Z,0
2017-02-22T03:14:05.952Z,0
2017-02-22T03:14:46.537Z,0
2017-02-22T03:15:27.171Z,0
2017-02-22T03:16:07.771Z,0
2017-02-22T03:16:48.363Z,0
2017-02-22T03:17:28.961Z,0
2017-02-22T03:18:09.596Z,0
2017-02-22T03:18:50.189Z,0
2017-02-22T03:19:30.820Z,0
2017-02-22T03:20:11.466Z,0
2017-02-22T03:20:52.066Z,0
2017-02-22T03:21:32.652Z,0
2017-02-22T03:22:13.286Z,0
2017-02-22T03:22:53.945Z,0
2017-02-22T03:23:34.500Z,0
2017-02-22T03:24:15.150Z,0
2017-02-22T03:24:55.782Z,0
2017-02-22T03:25:36.356Z,0
2017-02-22T03:26:16.983Z,0
2017-02-22T03:26:57.599Z,0
2017-02-22T03:27:38.177Z,0
2017-02-22T03:28:18.785Z,0
2017-02-22T03:28:59.490Z,0
2017-02-22T03:29:40.089Z,0
2017-02-22T03:30:20.710Z,0
2017-02-22T03:31:01.323Z,0
2017-02-22T03:31:41.905Z,0
2017-02-22T03:32:22.556Z,0
2017-02-22T03:33:03.165Z,0
2017-02-22T03:33:43.778Z,0
2017-02-22T03:34:24.377Z,0
2017-02-22T03:35:04.984Z,0
2017-02-22T03:35:45.605Z,0
2017-02-22T03:36:26.237Z,0
2017-02-22T03:37:06.868Z,0
2017-02-22T03:37:47.492Z,0
2017-02-22T03:38:28.109Z,0
2017-02-22T03:39:08.742Z,0
2017-02-22T03:39:49.364Z,0
2017-02-22T03:40:29.988Z,0
2017-02-22T03:41:10.554Z,0
2017-02-22T03:41:51.221Z,0
2017-02-22T03:42:31.830Z,0
2017-02-22T03:43:12.406Z,0
2017-02-22T03:43:53.006Z,0
2017-02-22T03:44:33.609Z,0
2017-02-22T03:45:14.271Z,0
2017-02-22T03:45:54.902Z,0
2017-02-22T03:46:35.543Z,0
2017-02-22T03:47:16.150Z,0
2017-02-22T03:47:56.771Z,0
2017-02-22T03:48:37.430Z,0
2017-02-22T03:49:18.043Z,0
2017-02-22T03:49:58.695Z,0
2017-02-22T03:50:39.286Z,0
2017-02-22T03:51:19.912Z,0
2017-02-22T03:52:00.539Z,0
2017-02-22T03:52:41.132Z,0
2017-02-22T03:53:21.756Z,0
2017-02-22T03:54:02.413Z,0
2017-02-22T03:54:43.039Z,0
2017-02-22T03:55:23.630Z,0
2017-02-22T03:56:04.223Z,0
2017-02-22T03:56:44.849Z,0
2017-02-22T03:57:25.455Z,0
2017-02-22T03:58:06.090Z,0
2017-02-22T03:58:46.710Z,0
2017-02-22T03:59:27.308Z,0
2017-02-22T04:00:07.884Z,0
2017-02-22T04:00:48.506Z,0
2017-02-22T04:01:29.178Z,0
2017-02-22T04:02:09.766Z,0
2017-02-22T04:02:50.367Z,0
2017-02-22T04:03:30.990Z,0
2017-02-22T04:04:11.550Z,0
2017-02-22T04:04:52.143Z,0
2017-02-22T04:05:32.768Z,0
2017-02-22T04:06:13.401Z,0
2017-02-22T04:06:54.032Z,0
2017-02-22T04:07:34.629Z,0
2017-02-22T04:08:15.226Z,0
2017-02-22T04:08:55.825Z,0
2017-02-22T04:09:36.462Z,0
2017-02-22T04:10:17.085Z,0
2017-02-22T04:10:57.742Z,0
2017-02-22T04:11:38.318Z,0
2017-02-22T04:12:18.935Z,0
2017-02-22T04:12:59.522Z,0
2017-02-22T04:13:40.127Z,0
2017-02-22T04:14:20.765Z,0
2017-02-22T04:15:01.392Z,0
2017-02-22T04:15:42.013Z,0
2017-02-22T04:16:22.622Z,0
2017-02-22T04:17:03.252Z,0
2017-02-22T04:17:43.863Z,0
2017-02-22T04:18:24.463Z,0
2017-02-22T04:19:05.041Z,0
2017-02-22T04:19:45.684Z,0
2017-02-22T04:20:26.269Z,0
2017-02-22T04:21:06.844Z,0
2017-02-22T04:21:47.445Z,0
2017-02-22T04:22:28.148Z,0
2017-02-22T04:23:08.800Z,0
2017-02-22T04:23:49.359Z,0
2017-02-22T04:24:30.008Z,0
2017-02-22T04:25:10.633Z,0
2017-02-22T04:25:51.230Z,0
2017-02-22T04:26:31.869Z,0
2017-02-22T04:27:12.466Z,0
2017-02-22T04:27:53.076Z,0
2017-02-22T04:28:33.627Z,0
2017-02-22T04:29:14.224Z,0
2017-02-22T04:29:54.837Z,0
2017-02-22T04:30:35.575Z,0
2017-02-22T04:31:16.222Z,0
2017-02-22T04:31:56.800Z,0
2017-02-22T04:32:37.424Z,0
2017-02-22T04:33:18.032Z,0
2017-02-22T04:33:58.628Z,0
2017-02-22T04:34:39.224Z,0
2017-02-22T04:35:19.807Z,0
2017-02-22T04:36:00.440Z,0
2017-02-22T04:36:41.004Z,0
2017-02-22T04:37:21.686Z,0
2017-02-22T04:38:02.346Z,0
2017-02-22T04:38:42.949Z,0
2017-02-22T04:39:23.545Z,0
2017-02-22T04:40:04.145Z,0
2017-02-22T04:40:44.759Z,0
2017-02-22T04:41:25.372Z,0
2017-02-22T04:42:05.973Z,0
2017-02-22T04:42:46.580Z,0
2017-02-22T04:43:27.224Z,0
2017-02-22T04:44:07.848Z,0
2017-02-22T04:44:48.461Z,0
2017-02-22T04:45:29.061Z,0
2017-02-22T04:46:09.682Z,0
2017-02-22T04:46:50.272Z,0
2017-02-22T04:47:33.179Z,0
2017-02-22T04:48:13.786Z,0
2017-02-22T04:48:54.796Z,0
2017-02-22T04:49:36.207Z,0
2017-02-22T04:50:16.806Z,0
2017-02-22T04:50:57.657Z,0
2017-02-22T04:51:38.306Z,0
2017-02-22T04:52:18.931Z,0
2017-02-22T04:52:59.529Z,0
2017-02-22T04:53:40.131Z,0
2017-02-22T04:54:20.708Z,0
2017-02-22T04:55:01.345Z,0
2017-02-22T04:55:41.947Z,0
2017-02-22T04:56:22.588Z,0
2017-02-22T04:57:03.193Z,0
2017-02-22T04:57:43.780Z,0
2017-02-22T04:58:24.425Z,0
2017-02-22T04:59:05.044Z,0
2017-02-22T04:59:45.641Z,0
2017-02-22T05:00:26.214Z,0
2017-02-22T05:01:06.800Z,0
2017-02-22T05:01:47.411Z,0
2017-02-22T05:02:27.999Z,0
2017-02-22T05:03:08.626Z,0
2017-02-22T05:03:49.277Z,0
2017-02-22T05:04:29.827Z,0
2017-02-22T05:05:10.413Z,0
2017-02-22T05:05:51.002Z,0
2017-02-22T05:06:31.618Z,0
2017-02-22T05:07:12.231Z,0
2017-02-22T05:07:52.884Z,0
2017-02-22T05:08:33.562Z,0
2017-02-22T05:09:14.114Z,0
2017-02-22T05:09:54.686Z,0
2017-02-22T05:10:35.222Z,0
2017-02-22T05:11:15.809Z,0
2017-02-22T05:11:56.444Z,0
2017-02-22T05:12:37.054Z,0
2017-02-22T05:13:17.669Z,0
2017-02-22T05:13:58.253Z,0
2017-02-22T05:14:38.871Z,0
2017-02-22T05:15:19.442Z,0
2017-02-22T05:16:00.006Z,0
2017-02-22T05:16:40.639Z,0
2017-02-22T05:17:21.237Z,0
2017-02-22T05:18:01.851Z,0
2017-02-22T05:18:42.443Z,0
2017-02-22T05:19:23.008Z,0
2017-02-22T05:20:03.577Z,0
2017-02-22T05:20:44.143Z,0
2017-02-22T05:21:24.720Z,0
2017-02-22T05:22:05.289Z,0
2017-02-22T05:22:45.926Z,0
2017-02-22T05:23:26.555Z,0
2017-02-22T05:24:07.155Z,0
2017-02-22T05:24:47.750Z,0
2017-02-22T05:25:28.352Z,0
2017-02-22T05:26:08.923Z,0
2017-02-22T05:26:49.511Z,0
2017-02-22T05:27:30.128Z,0
2017-02-22T05:28:10.758Z,0
2017-02-22T05:28:51.356Z,0
2017-02-22T05:29:31.933Z,0
2017-02-22T05:30:12.493Z,0
2017-02-22T05:30:53.029Z,0
2017-02-22T05:31:33.563Z,0
2017-02-22T05:32:14.140Z,0
2017-02-22T05:32:54.843Z,0
2017-02-22T05:33:35.434Z,0
2017-02-22T05:34:16.086Z,0
2017-02-22T05:34:56.727Z,0
2017-02-22T05:35:37.393Z,0
2017-02-22T05:36:17.979Z,0
2017-02-22T05:36:58.560Z,0
2017-02-22T05:37:39.244Z,0
2017-02-22T05:38:19.868Z,0
2017-02-22T05:39:00.454Z,0
2017-02-22T05:39:41.086Z,0
2017-02-22T05:40:21.656Z,0
2017-02-22T05:41:02.217Z,0
2017-02-22T05:41:42.761Z,0
2017-02-22T05:42:23.324Z,0
2017-02-22T05:43:03.945Z,0
2017-02-22T05:43:44.573Z,0
2017-02-22T05:44:25.215Z,0
2017-02-22T05:45:05.801Z,0
2017-02-22T05:45:46.390Z,0
2017-02-22T05:46:26.979Z,0
2017-02-22T05:47:07.528Z,0
2017-02-22T05:47:48.100Z,0
2017-02-22T05:48:28.709Z,0
2017-02-22T05:49:09.475Z,0
2017-02-22T05:49:50.072Z,0
2017-02-22T05:50:30.683Z,0
2017-02-22T05:51:11.258Z,0
2017-02-22T05:51:51.837Z,0
2017-02-22T05:52:32.464Z,0
2017-02-22T05:53:13.064Z,0
2017-02-22T05:53:53.733Z,0
2017-02-22T05:54:34.370Z,0
2017-02-22T05:55:14.941Z,0
2017-02-22T05:55:55.503Z,0
2017-02-22T05:56:36.074Z,0
2017-02-22T05:57:16.629Z,0
2017-02-22T05:57:57.210Z,0
2017-02-22T05:58:37.847Z,0
2017-02-22T05:59:18.510Z,0
2017-02-22T05:59:59.130Z,0
2017-02-22T06:00:39.760Z,0
2017-02-22T06:01:20.312Z,0
2017-02-22T06:02:00.935Z,0
2017-02-22T06:02:41.570Z,0
2017-02-22T06:03:22.424Z,0
2017-02-22T06:04:03.051Z,0
2017-02-22T06:04:43.702Z,0
2017-02-22T06:05:24.372Z,0
2017-02-22T06:06:04.954Z,0
2017-02-22T06:06:45.559Z,0
2017-02-22T06:07:26.234Z,0
2017-02-22T06:08:06.839Z,0
2017-02-22T06:08:47.444Z,0
2017-02-22T06:09:28.105Z,0
2017-02-22T06:10:08.734Z,0
2017-02-22T06:10:49.317Z,0
2017-02-22T06:11:30.020Z,0
2017-02-22T06:12:10.703Z,0
2017-02-22T06:12:51.374Z,0
2017-02-22T06:13:31.950Z,0
2017-02-22T06:14:12.627Z,0
2017-02-22T06:14:53.148Z,0
2017-02-22T06:15:33.721Z,0
2017-02-22T06:16:14.288Z,0
2017-02-22T06:16:54.890Z,0
2017-02-22T06:17:35.487Z,0
2017-02-22T06:18:16.157Z,0
2017-02-22T06:18:56.750Z,0
2017-02-22T06:19:37.360Z,0
2017-02-22T06:20:17.960Z,0
2017-02-22T06:20:58.544Z,0
2017-02-22T06:21:39.119Z,0
2017-02-22T06:22:19.753Z,0
2017-02-22T06:23:00.388Z,0
2017-02-22T06:25:39.168Z,0
2017-02-22T06:26:19.792Z,0
2017-02-22T06:27:00.367Z,0
2017-02-22T06:27:40.917Z,0
2017-02-22T06:28:21.524Z,0
2017-02-22T06:29:02.242Z,0
2017-02-22T06:29:42.829Z,0
2017-02-22T06:30:23.461Z,0
2017-02-22T06:31:04.024Z,0
2017-02-22T06:31:44.584Z,0
2017-02-22T06:32:25.202Z,0
2017-02-22T06:33:06.319Z,0
2017-02-22T06:33:46.923Z,0
2017-02-22T06:34:27.533Z,0
2017-02-22T06:37:06.363Z,0
2017-02-22T06:37:46.997Z,0
2017-02-22T06:38:27.655Z,0
2017-02-22T06:39:08.264Z,0
2017-02-22T06:39:48.922Z,0
2017-02-22T06:40:29.549Z,0
2017-02-22T06:41:10.156Z,0
2017-02-22T06:41:50.789Z,0
2017-02-22T06:42:31.407Z,0
2017-02-22T06:43:12.039Z,0
2017-02-22T06:43:52.621Z,0
2017-02-22T06:44:33.212Z,0
2017-02-22T06:45:13.807Z,0
2017-02-22T06:45:54.390Z,0
2017-02-22T06:46:34.968Z,5
2017-02-22T06:47:15.553Z,5
2017-02-22T06:47:56.085Z,5
2017-02-22T06:48:36.663Z,5
2017-02-22T06:49:17.297Z,5
2017-02-22T06:49:57.890Z,5
2017-02-22T06:50:38.501Z,5
2017-02-22T06:51:19.167Z,5
2017-02-22T06:51:59.775Z,5
2017-02-22T06:52:40.374Z,5
2017-02-22T06:53:20.969Z,5
2017-02-22T06:54:01.543Z,5
2017-02-22T06:54:42.146Z,5
2017-02-22T06:55:22.731Z,5
2017-02-22T06:56:03.352Z,5
2017-02-22T06:56:43.995Z,5
2017-02-22T06:57:24.619Z,5
2017-02-22T06:58:05.192Z,10
2017-02-22T06:58:45.817Z,5
2017-02-22T06:59:26.471Z,10
2017-02-22T07:00:07.111Z,5
2017-02-22T07:00:47.774Z,10
2017-02-22T07:01:28.335Z,10
2017-02-22T07:02:08.876Z,10
2017-02-22T07:02:49.452Z,10
2017-02-22T07:03:30.027Z,10
2017-02-22T07:04:10.581Z,10
2017-02-22T07:04:51.209Z,5
2017-02-22T07:05:31.836Z,10
2017-02-22T07:06:12.496Z,10
2017-02-22T07:06:53.108Z,10
2017-02-22T07:07:33.683Z,10
2017-02-22T07:08:14.235Z,10
2017-02-22T07:08:54.792Z,10
2017-02-22T07:09:35.375Z,10
2017-02-22T07:10:16.030Z,10
2017-02-22T07:10:56.579Z,10
2017-02-22T07:11:37.251Z,10
2017-02-22T07:12:17.886Z,10
2017-02-22T07:12:58.500Z,15
2017-02-22T07:13:39.049Z,15
2017-02-22T07:14:19.652Z,15
2017-02-22T07:15:00.289Z,10
2017-02-22T07:15:40.911Z,15
2017-02-22T07:16:21.544Z,10
2017-02-22T07:17:02.198Z,10
2017-02-22T07:17:42.831Z,15
2017-02-22T07:18:23.387Z,15
2017-02-22T07:19:03.999Z,15
2017-02-22T07:19:44.610Z,15
2017-02-22T07:20:25.228Z,15
2017-02-22T07:21:05.881Z,15
2017-02-22T07:21:46.541Z,15
2017-02-22T07:22:27.287Z,15
2017-02-22T07:23:07.882Z,15
2017-02-22T07:23:48.544Z,20
2017-02-22T07:24:29.258Z,15
2017-02-22T07:25:09.912Z,15
2017-02-22T07:25:50.595Z,15
2017-02-22T07:26:31.299Z,15
2017-02-22T07:27:11.991Z,15
2017-02-22T07:27:52.637Z,20
2017-02-22T07:28:33.350Z,15
2017-02-22T07:29:14.250Z,15
2017-02-22T07:29:54.985Z,15
2017-02-22T07:30:35.664Z,15
2017-02-22T07:31:16.373Z,15
2017-02-22T07:31:57.095Z,20
2017-02-22T07:32:37.900Z,20
2017-02-22T07:33:18.554Z,20
2017-02-22T07:33:59.211Z,15
2017-02-22T07:34:39.878Z,15
2017-02-22T07:35:20.666Z,15
2017-02-22T07:36:01.399Z,15
2017-02-22T07:36:42.044Z,15
2017-02-22T07:37:22.676Z,15
2017-02-22T07:38:03.248Z,15
2017-02-22T07:38:43.885Z,15
2017-02-22T07:39:24.507Z,15
2017-02-22T07:40:05.087Z,15
2017-02-22T07:40:45.756Z,15
2017-02-22T07:41:26.422Z,20
2017-02-22T07:42:07.004Z,25
2017-02-22T07:42:47.584Z,20
2017-02-22T07:43:28.278Z,30
2017-02-22T07:44:08.936Z,30
2017-02-22T07:44:49.631Z,30
2017-02-22T07:45:30.168Z,35
2017-02-22T07:46:10.801Z,25
2017-02-22T07:46:51.401Z,35
2017-02-22T07:47:32.042Z,35
2017-02-22T07:48:12.651Z,35
2017-02-22T07:48:53.268Z,35
2017-02-22T07:49:33.859Z,35
2017-02-22T07:50:14.512Z,40
2017-02-22T07:50:55.153Z,40
2017-02-22T07:51:35.801Z,35
2017-02-22T07:52:16.473Z,35
2017-02-22T07:52:57.127Z,35
2017-02-22T07:53:37.739Z,35
2017-02-22T07:54:18.290Z,45
2017-02-22T07:54:58.911Z,45
2017-02-22T07:55:39.487Z,40
2017-02-22T07:56:20.174Z,40
2017-02-22T07:57:00.837Z,40
2017-02-22T07:57:41.527Z,35
2017-02-22T07:58:22.186Z,40
2017-02-22T07:59:02.804Z,40
2017-02-22T07:59:43.386Z,35
2017-02-22T08:00:24.076Z,35
2017-02-22T08:01:04.757Z,40
2017-02-22T08:01:45.400Z,35
2017-02-22T08:02:26.028Z,35
2017-02-22T08:03:06.652Z,40
2017-02-22T08:03:47.322Z,55
2017-02-22T08:04:27.939Z,50
2017-02-22T08:05:08.540Z,50
2017-02-22T08:05:49.185Z,50
2017-02-22T08:06:29.870Z,45
2017-02-22T08:07:10.506Z,40
2017-02-22T08:07:51.142Z,35
2017-02-22T08:08:31.804Z,40
2017-02-22T08:09:12.411Z,40
2017-02-22T08:09:53.032Z,40
2017-02-22T08:10:33.614Z,50
2017-02-22T08:11:14.283Z,45
2017-02-22T08:11:54.949Z,45
2017-02-22T08:12:35.600Z,55
2017-02-22T08:13:16.230Z,60
2017-02-22T08:13:56.881Z,55
2017-02-22T08:14:37.485Z,50
2017-02-22T08:15:18.202Z,55
2017-02-22T08:15:58.794Z,50
2017-02-22T08:16:39.413Z,50
2017-02-22T08:17:20.068Z,50
2017-02-22T08:18:00.720Z,50
2017-02-22T08:18:41.323Z,55
2017-02-22T08:19:21.970Z,55
2017-02-22T08:20:02.666Z,55
2017-02-22T08:20:43.353Z,60
2017-02-22T08:21:24.016Z,55
2017-02-22T08:22:04.658Z,55
2017-02-22T08:22:45.277Z,50
2017-02-22T08:23:25.924Z,55
2017-02-22T08:24:06.540Z,60
2017-02-22T08:24:47.089Z,65
2017-02-22T08:25:27.713Z,65
2017-02-22T08:26:08.380Z,65
2017-02-22T08:26:49.003Z,70
2017-02-22T08:27:29.644Z,70
2017-02-22T08:28:10.237Z,65
2017-02-22T08:28:50.843Z,70
2017-02-22T08:29:31.534Z,70
2017-02-22T08:30:12.153Z,65
2017-02-22T08:30:52.751Z,65
2017-02-22T08:31:33.377Z,65
2017-02-22T08:32:13.947Z,65
2017-02-22T08:32:54.545Z,55
2017-02-22T08:33:35.195Z,60
2017-02-22T08:34:15.774Z,45
2017-02-22T08:34:56.408Z,50
2017-02-22T08:35:36.988Z,45
2017-02-22T08:36:17.576Z,50
2017-02-22T08:36:58.277Z,45
2017-02-22T08:37:38.972Z,45
2017-02-22T08:38:19.607Z,45
2017-02-22T08:39:00.261Z,55
2017-02-22T08:39:40.919Z,45
2017-02-22T08:40:21.593Z,40
2017-02-22T08:41:02.323Z,45
2017-02-22T08:41:43.019Z,35
2017-02-22T08:42:23.762Z,35
2017-02-22T08:43:04.495Z,35
2017-02-22T08:43:45.113Z,30
2017-02-22T08:44:25.829Z,30
2017-02-22T08:45:06.466Z,35
2017-02-22T08:45:47.161Z,30
2017-02-22T08:46:27.957Z,40
2017-02-22T08:47:08.738Z,40
2017-02-22T08:47:49.458Z,45
2017-02-22T08:48:30.137Z,45
2017-02-22T08:49:10.799Z,45
2017-02-22T08:49:51.459Z,45
2017-02-22T08:50:32.148Z,55
2017-02-22T08:51:12.777Z,55
2017-02-22T08:51:53.522Z,45
2017-02-22T08:52:34.174Z,45
2017-02-22T08:53:14.762Z,45
2017-02-22T08:53:55.340Z,40
2017-02-22T08:54:35.968Z,40
2017-02-22T08:55:16.559Z,45
2017-02-22T08:55:57.181Z,50
2017-02-22T08:56:37.846Z,50
2017-02-22T08:57:18.506Z,50
2017-02-22T08:57:59.143Z,50
2017-02-22T08:58:39.855Z,55
2017-02-22T08:59:20.583Z,60
2017-02-22T09:00:01.262Z,65
2017-02-22T09:00:41.884Z,75
2017-02-22T09:01:22.572Z,60
2017-02-22T09:02:03.366Z,60
2017-02-22T09:02:44.064Z,60
2017-02-22T09:03:24.745Z,55
2017-02-22T09:04:05.491Z,55
2017-02-22T09:04:46.098Z,55
2017-02-22T09:05:26.782Z,45
2017-02-22T09:06:07.386Z,50
2017-02-22T09:06:47.989Z,55
2017-02-22T09:07:28.665Z,60
2017-02-22T09:08:09.299Z,55
2017-02-22T09:08:49.895Z,50
2017-02-22T09:09:30.625Z,55
2017-02-22T09:10:11.437Z,60
2017-02-22T09:10:52.110Z,65
2017-02-22T09:11:32.918Z,70
2017-02-22T09:12:13.665Z,65
2017-02-22T09:12:54.449Z,70
2017-02-22T09:13:35.095Z,60
2017-02-22T09:14:15.925Z,55
2017-02-22T09:14:56.618Z,50
2017-02-22T09:15:37.343Z,60
2017-02-22T09:16:17.987Z,70
2017-02-22T09:16:58.841Z,65
2017-02-22T09:17:39.423Z,55
2017-02-22T09:18:20.120Z,50
2017-02-22T09:19:00.784Z,45
2017-02-22T09:19:41.425Z,45
2017-02-22T09:20:22.109Z,50
2017-02-22T09:21:03.002Z,60
2017-02-22T09:21:43.702Z,60
2017-02-22T09:22:24.407Z,65
2017-02-22T09:23:05.143Z,70
2017-02-22T09:23:45.870Z,75
2017-02-22T09:24:26.488Z,75
2017-02-22T09:25:07.065Z,80
2017-02-22T09:25:47.651Z,85
2017-02-22T09:26:28.279Z,70
2017-02-22T09:27:08.887Z,55
2017-02-22T09:27:49.485Z,55
2017-02-22T09:28:30.049Z,60
2017-02-22T09:29:10.613Z,65
2017-02-22T09:29:51.215Z,65
2017-02-22T09:30:31.786Z,65
2017-02-22T09:31:12.356Z,60
2017-02-22T09:31:52.921Z,60
2017-02-22T09:32:33.509Z,60
2017-02-22T09:33:14.116Z,65
2017-02-22T09:33:54.726Z,65
2017-02-22T09:34:35.337Z,75
2017-02-22T09:35:15.976Z,65
2017-02-22T09:35:56.526Z,70
2017-02-22T09:36:37.070Z,80
2017-02-22T09:37:17.654Z,95
2017-02-22T09:37:58.259Z,85
2017-02-22T09:38:38.832Z,80
2017-02-22T09:39:19.424Z,70
2017-02-22T09:40:00.035Z,70
2017-02-22T09:40:40.648Z,65
2017-02-22T09:41:21.209Z,70
2017-02-22T09:42:01.796Z,60
2017-02-22T09:42:42.371Z,75
2017-02-22T09:43:22.963Z,75
2017-02-22T09:44:03.524Z,60
2017-02-22T09:44:44.080Z,65
2017-02-22T09:45:24.643Z,60
2017-02-22T09:46:05.245Z,65
2017-02-22T09:46:45.837Z,80
2017-02-22T09:47:26.460Z,70
2017-02-22T09:48:07.027Z,75
2017-02-22T09:48:47.586Z,70
2017-02-22T09:49:28.189Z,55
2017-02-22T09:50:08.824Z,55
2017-02-22T09:50:49.381Z,70
2017-02-22T09:51:29.933Z,80
2017-02-22T09:52:10.544Z,85
2017-02-22T09:52:51.088Z,80
2017-02-22T09:53:31.700Z,70
2017-02-22T09:54:12.309Z,80
2017-02-22T09:54:52.897Z,100
2017-02-22T09:55:33.486Z,110
2017-02-22T09:56:14.261Z,100
2017-02-22T09:56:54.828Z,85
2017-02-22T09:57:35.451Z,90
2017-02-22T09:58:16.085Z,100
2017-02-22T09:58:56.853Z,90
2017-02-22T09:59:37.702Z,90
2017-02-22T10:00:18.576Z,85